Time;durP1;ratioP1;P1;durP2;ratioP2;P2;SDS_P1;SDS_P2;PMS_P1;PMS_P2;Temp;Humidity;BMP_temperature;BMP_pressure;BME280_temperature;BME280_humidity;BME280_pressure;Samples;Min_cycle;Max_cycle;Signal;HPM_P1;HPM_P2
2022/12/09 00:01:35;;;;;;;187.55;54.60;;;;;;;1.33;100.00;100368.09;4995786;28;20128;-79
2022/12/09 00:04:00;;;;;;;181.57;54.30;;;;;;;1.29;100.00;100374.56;4962329;28;20049;-78
2022/12/09 00:06:28;;;;;;;182.13;55.55;;;;;;;1.23;100.00;100364.09;4993393;28;20524;-79
2022/12/09 00:08:55;;;;;;;187.15;54.53;;;;;;;1.30;100.00;100368.25;4996557;28;20084;-79
2022/12/09 00:11:21;;;;;;;192.98;57.75;;;;;;;1.19;100.00;100360.66;4976099;28;20042;-79
2022/12/09 00:13:51;;;;;;;192.75;55.58;;;;;;;1.23;100.00;100359.59;4959670;28;20045;-79
2022/12/09 00:16:17;;;;;;;181.95;53.22;;;;;;;1.19;100.00;100355.28;4991041;28;20196;-80
2022/12/09 00:18:42;;;;;;;184.57;54.53;;;;;;;1.23;100.00;100362.28;4987636;28;20035;-80
2022/12/09 00:21:20;;;;;;;189.82;53.83;;;;;;;1.22;100.00;100356.97;4951233;28;20065;-79
2022/12/09 00:23:46;;;;;;;175.43;49.33;;;;;;;1.19;100.00;100347.19;4994523;28;20127;-78
2022/12/09 00:26:13;;;;;;;188.85;55.20;;;;;;;1.20;100.00;100356.16;4973835;28;20041;-80
2022/12/09 00:28:39;;;;;;;199.80;57.47;;;;;;;1.21;100.00;100350.66;4994640;28;20153;-79
2022/12/09 00:31:06;;;;;;;181.23;52.17;;;;;;;1.19;100.00;100355.28;4992786;28;20034;-79
2022/12/09 00:33:33;;;;;;;179.75;52.05;;;;;;;1.15;100.00;100353.69;4989932;28;20097;-79
2022/12/09 00:36:08;;;;;;;185.77;51.55;;;;;;;1.23;100.00;100359.59;4993781;28;20129;-79
2022/12/09 00:38:33;;;;;;;190.70;54.08;;;;;;;1.05;100.00;100347.88;4986910;28;20030;-80
2022/12/09 00:40:59;;;;;;;199.65;57.75;;;;;;;1.18;100.00;100356.25;4993267;28;20031;-79
2022/12/09 00:43:24;;;;;;;190.15;56.10;;;;;;;1.21;100.00;100356.06;4993670;28;20142;-79
2022/12/09 00:45:50;;;;;;;190.27;56.55;;;;;;;1.18;100.00;100348.16;4994955;28;20046;-80
2022/12/09 00:48:15;;;;;;;177.48;53.95;;;;;;;1.15;100.00;100348.28;4995147;28;20393;-78
2022/12/09 00:50:41;;;;;;;197.35;54.70;;;;;;;1.19;100.00;100355.28;4995224;28;20042;-78
2022/12/09 00:53:06;;;;;;;184.85;55.72;;;;;;;1.18;100.00;100356.25;4977963;28;20042;-80
2022/12/09 00:55:32;;;;;;;190.40;55.72;;;;;;;1.27;100.00;100355.78;4995694;28;20555;-79
2022/12/09 00:57:58;;;;;;;201.40;58.10;;;;;;;1.23;100.00;100354.19;4995550;28;20038;-79
2022/12/09 01:00:23;;;;;;;197.45;56.92;;;;;;;1.20;100.00;100357.03;4981059;28;20128;-79
2022/12/09 01:02:49;;;;;;;184.10;57.72;;;;;;;1.29;100.00;100348.47;4998304;28;20049;-79
2022/12/09 01:05:19;;;;;;;185.27;54.80;;;;;;;1.23;100.00;100351.50;4983137;28;20038;-78
2022/12/09 01:07:45;;;;;;;189.05;53.95;;;;;;;1.27;100.00;100344.13;4999274;28;20070;-80
2022/12/09 01:10:10;;;;;;;209.35;56.17;;;;;;;1.18;100.00;100350.84;4999887;28;20453;-79
2022/12/09 01:12:37;;;;;;;177.30;54.22;;;;;;;1.19;100.00;100357.97;4979636;28;20479;-79
2022/12/09 01:15:08;;;;;;;187.80;50.13;;;;;;;1.11;100.00;100354.78;4998591;28;20485;-78
2022/12/09 01:17:39;;;;;;;181.52;54.60;;;;;;;1.12;100.00;100353.84;4997400;28;20489;-79
2022/12/09 01:20:06;;;;;;;176.07;55.35;;;;;;;1.17;100.00;100359.88;4966553;28;20038;-79
2022/12/09 01:22:31;;;;;;;191.10;55.95;;;;;;;1.08;100.00;100358.50;4963570;28;20038;-78
2022/12/09 01:24:57;;;;;;;182.73;53.25;;;;;;;1.20;100.00;100361.56;4981560;28;20129;-79
2022/12/09 01:27:23;;;;;;;184.68;50.95;;;;;;;1.17;100.00;100359.88;4998007;28;20042;-79
2022/12/09 01:29:48;;;;;;;178.85;54.17;;;;;;;1.17;100.00;100361.72;4982894;28;20039;-79
2022/12/09 01:32:14;;;;;;;184.10;53.63;;;;;;;1.14;100.00;100353.75;4988570;28;20030;-79
2022/12/09 01:34:39;;;;;;;193.52;56.03;;;;;;;1.28;100.00;100356.66;4960248;28;20043;-79
2022/12/09 01:37:05;;;;;;;166.63;51.85;;;;;;;1.15;100.00;100352.78;4970987;28;20034;-78
2022/12/09 01:39:30;;;;;;;167.80;52.85;;;;;;;1.08;100.00;100349.53;4978349;28;20386;-78
2022/12/09 01:41:56;;;;;;;180.05;57.15;;;;;;;1.23;100.00;100359.59;4999791;28;20049;-78
2022/12/09 01:44:24;;;;;;;175.35;53.35;;;;;;;1.13;100.00;100363.66;4996787;28;20042;-79
2022/12/09 01:47:00;;;;;;;164.68;53.28;;;;;;;1.19;100.00;100360.66;4987809;28;20095;-77
2022/12/09 01:49:35;;;;;;;167.15;50.60;;;;;;;1.14;100.00;100360.00;4974301;28;20042;-78
2022/12/09 01:52:15;;;;;;;176.55;53.30;;;;;;;1.09;100.00;100360.22;4995878;28;20098;-78
2022/12/09 01:54:42;;;;;;;171.90;52.60;;;;;;;1.08;100.00;100363.00;4980309;28;20405;-78
2022/12/09 01:57:08;;;;;;;204.73;52.75;;;;;;;1.05;100.00;100361.34;4999309;28;20041;-79
2022/12/09 01:59:34;;;;;;;173.45;52.92;;;;;;;1.13;100.00;100363.66;4998045;28;20038;-78
2022/12/09 02:02:02;;;;;;;152.30;48.15;;;;;;;0.91;100.00;100359.28;4982199;28;20026;-79
2022/12/09 02:04:31;;;;;;;166.48;51.58;;;;;;;0.98;100.00;100359.00;4964755;28;20541;-79
2022/12/09 02:07:01;;;;;;;181.40;54.85;;;;;;;1.05;100.00;100360.44;4985480;28;20038;-79
2022/12/09 02:09:27;;;;;;;175.57;54.80;;;;;;;1.00;100.00;100347.22;4998500;28;20041;-79
2022/12/09 02:12:08;;;;;;;174.10;53.80;;;;;;;1.06;100.00;100364.91;4998836;28;20038;-79
2022/12/09 02:14:58;;;;;;;181.85;53.05;;;;;;;0.97;100.00;100354.53;4974393;28;20474;-79
2022/12/09 02:17:39;;;;;;;179.40;51.95;;;;;;;1.03;100.00;100368.63;4988414;28;20046;-79
2022/12/09 02:20:39;;;;;;;172.02;50.33;;;;;;;0.99;100.00;100363.47;4996914;28;20078;-80
2022/12/09 02:23:36;;;;;;;165.82;51.45;;;;;;;0.88;100.00;100345.94;5009352;28;20493;-80
2022/12/09 02:26:16;;;;;;;189.25;54.08;;;;;;;1.02;100.00;100369.56;4972382;28;20051;-79
2022/12/09 02:29:03;;;;;;;170.05;51.97;;;;;;;1.05;100.00;100361.34;4997119;28;20038;-79
2022/12/09 02:31:48;;;;;;;171.85;52.30;;;;;;;1.01;100.00;100361.56;4998274;28;20030;-79
2022/12/09 02:34:19;;;;;;;163.77;51.45;;;;;;;0.84;100.00;100336.28;4973164;28;20022;-80
2022/12/09 02:37:07;;;;;;;175.50;54.45;;;;;;;1.00;100.00;100352.59;4993928;28;20051;-81
2022/12/09 02:39:52;;;;;;;213.27;58.17;;;;;;;1.09;100.00;100346.75;4991324;28;20035;-77
2022/12/09 02:42:21;;;;;;;178.52;53.30;;;;;;;1.00;100.00;100339.13;4983120;28;20034;-79
2022/12/09 02:44:49;;;;;;;204.77;56.72;;;;;;;1.04;100.00;100350.63;4995074;28;20034;-79
2022/12/09 02:47:23;;;;;;;193.18;56.85;;;;;;;1.13;100.00;100355.56;4978959;28;20050;-80
2022/12/09 02:49:53;;;;;;;191.23;58.55;;;;;;;1.04;100.00;100339.84;4977879;28;20041;-79
2022/12/09 02:52:19;;;;;;;182.70;56.97;;;;;;;1.00;100.00;100355.31;4996489;28;20478;-79
2022/12/09 02:54:46;;;;;;;196.48;57.72;;;;;;;0.96;100.00;100358.22;4976536;28;20520;-78
2022/12/09 02:57:21;;;;;;;194.07;58.95;;;;;;;1.01;100.00;100350.78;4994821;28;20050;-79
2022/12/09 02:59:46;;;;;;;177.82;56.00;;;;;;;1.06;100.00;100338.81;4984053;28;20038;-79
2022/12/09 03:02:34;;;;;;;180.57;52.97;;;;;;;1.02;100.00;100353.41;4976834;28;20042;-79
2022/12/09 03:05:22;;;;;;;174.95;54.10;;;;;;;0.97;100.00;100359.94;4979910;28;20038;-78
2022/12/09 03:08:20;;;;;;;177.88;54.22;;;;;;;0.97;100.00;100349.16;4997222;28;20030;-78
2022/12/09 03:11:08;;;;;;;208.27;57.75;;;;;;;1.05;100.00;100341.56;4996950;28;20370;-79
2022/12/09 03:13:59;;;;;;;205.07;58.53;;;;;;;1.02;100.00;100341.75;4994724;28;20104;-79
2022/12/09 03:16:38;;;;;;;200.07;60.00;;;;;;;1.03;100.00;100340.78;4995990;28;20073;-79
2022/12/09 03:19:11;;;;;;;211.15;56.83;;;;;;;0.95;100.00;100333.06;4979985;28;20027;-79
2022/12/09 03:21:42;;;;;;;212.35;59.13;;;;;;;1.02;100.00;100339.91;4979942;28;20046;-79
2022/12/09 03:24:11;;;;;;;210.57;58.85;;;;;;;1.01;100.00;100343.56;4992071;28;20031;-79
2022/12/09 03:26:37;;;;;;;207.48;60.40;;;;;;;0.91;100.00;100320.69;5001108;28;20194;-78
2022/12/09 03:29:08;;;;;;;203.85;58.72;;;;;;;0.99;100.00;100328.41;4977335;28;20394;-78
2022/12/09 03:31:36;;;;;;;194.32;57.60;;;;;;;0.97;100.00;100333.88;4996146;28;20027;-79
2022/12/09 03:34:05;;;;;;;217.77;59.83;;;;;;;1.05;100.00;100329.00;4986432;28;20039;-79
2022/12/09 03:36:36;;;;;;;235.30;63.53;;;;;;;0.96;100.00;100310.56;4984058;28;20524;-79
2022/12/09 03:39:06;;;;;;;235.18;62.88;;;;;;;0.99;100.00;100331.13;4995502;28;20073;-79
2022/12/09 03:41:33;;;;;;;231.50;62.17;;;;;;;1.05;100.00;100330.78;4996905;28;20528;-79
2022/12/09 03:44:27;;;;;;;239.43;62.20;;;;;;;1.07;100.00;100324.41;4993797;28;20038;-79
2022/12/09 03:46:53;;;;;;;252.98;62.90;;;;;;;1.09;100.00;100327.88;4995961;28;20048;-79
2022/12/09 03:49:18;;;;;;;219.10;60.72;;;;;;;1.10;100.00;100324.25;4978518;28;20042;-78
2022/12/09 03:51:50;;;;;;;249.90;59.10;;;;;;;1.02;100.00;100306.72;4942940;28;20051;-78
2022/12/09 03:54:21;;;;;;;242.73;62.30;;;;;;;1.10;100.00;100324.25;4991734;28;20120;-79
2022/12/09 03:56:52;;;;;;;258.10;64.43;;;;;;;1.02;100.00;100314.81;5012183;28;20053;-78
2022/12/09 03:59:22;;;;;;;243.73;64.72;;;;;;;1.05;100.00;100317.31;4984936;28;20034;-79
2022/12/09 04:01:51;;;;;;;241.60;62.40;;;;;;;1.12;100.00;100305.31;4994768;28;20073;-79
2022/12/09 04:04:16;;;;;;;236.77;63.30;;;;;;;1.02;100.00;100310.28;4987776;28;20183;-79
2022/12/09 04:06:42;;;;;;;260.33;63.67;;;;;;;1.00;100.00;100308.59;4962687;28;20038;-78
2022/12/09 04:09:10;;;;;;;245.82;63.38;;;;;;;0.99;100.00;100315.81;4988190;28;20026;-79
2022/12/09 04:11:36;;;;;;;273.80;65.32;;;;;;;1.06;100.00;100314.56;4993880;28;20039;-78
2022/12/09 04:14:01;;;;;;;251.77;65.88;;;;;;;1.18;100.00;100304.13;4989225;28;20030;-80
2022/12/09 04:16:27;;;;;;;234.35;63.55;;;;;;;0.97;100.00;100300.63;4979200;28;20088;-79
2022/12/09 04:18:53;;;;;;;246.80;64.88;;;;;;;0.97;100.00;100308.72;4993425;28;20480;-78
2022/12/09 04:21:21;;;;;;;251.65;62.47;;;;;;;0.95;100.00;100298.03;4979421;28;20095;-78
2022/12/09 04:23:47;;;;;;;234.13;65.82;;;;;;;0.96;100.00;100297.09;5009570;28;20397;-77
2022/12/09 04:26:22;;;;;;;237.52;66.07;;;;;;;1.01;100.00;100300.41;4960802;28;20039;-78
2022/12/09 04:28:49;;;;;;;241.23;64.57;;;;;;;1.01;100.00;100299.56;4985070;28;20045;-78
2022/12/09 04:31:16;;;;;;;254.98;66.78;;;;;;;1.03;100.00;100306.63;5011721;28;20030;-79
2022/12/09 04:33:43;;;;;;;240.90;64.13;;;;;;;0.99;100.00;100315.81;4977421;28;20069;-79
2022/12/09 04:36:12;;;;;;;234.82;59.17;;;;;;;0.88;100.00;100308.22;4977209;28;20106;-79
2022/12/09 04:38:47;;;;;;;222.38;65.95;;;;;;;0.90;100.00;100300.97;4985028;28;20030;-79
2022/12/09 04:41:14;;;;;;;228.18;62.53;;;;;;;0.88;100.00;100302.84;4994870;28;20566;-79
2022/12/09 04:43:39;;;;;;;236.45;63.10;;;;;;;0.93;100.00;100291.84;4994839;28;20053;-79
2022/12/09 04:46:11;;;;;;;236.15;64.65;;;;;;;1.03;100.00;100303.03;4990807;28;20061;-79
2022/12/09 04:48:36;;;;;;;235.13;63.30;;;;;;;0.87;100.00;100289.44;4981320;28;20109;-80
2022/12/09 04:51:02;;;;;;;240.20;63.38;;;;;;;0.98;100.00;100297.88;4975712;28;20130;-79
2022/12/09 04:53:28;;;;;;;244.20;66.15;;;;;;;1.11;100.00;100303.53;4992918;28;20152;-80
2022/12/09 04:56:11;;;;;;;268.88;71.57;;;;;;;1.05;100.00;100304.72;4976158;28;20042;-80
2022/12/09 04:58:36;;;;;;;244.40;67.03;;;;;;;0.96;100.00;100302.47;4993524;28;20030;-79
2022/12/09 05:01:11;;;;;;;259.15;66.60;;;;;;;0.83;100.00;100302.19;4994497;28;20067;-80
2022/12/09 05:03:36;;;;;;;262.08;67.50;;;;;;;0.96;100.00;100309.69;4994977;28;20034;-80
2022/12/09 05:06:07;;;;;;;251.73;66.38;;;;;;;0.89;100.00;100306.44;4994983;28;20031;-81
2022/12/09 05:08:34;;;;;;;272.05;71.47;;;;;;;0.88;100.00;100307.34;4993124;28;20027;-80
2022/12/09 05:11:00;;;;;;;275.08;68.93;;;;;;;0.81;100.00;100296.00;4977832;28;20042;-79
2022/12/09 05:13:27;;;;;;;256.88;63.80;;;;;;;0.73;100.00;100298.19;4979255;28;20031;-79
2022/12/09 05:15:58;;;;;;;254.80;67.72;;;;;;;0.77;100.00;100304.31;4992809;28;20058;-80
2022/12/09 05:18:23;;;;;;;253.90;63.90;;;;;;;0.73;100.00;100309.81;4991488;28;20058;-80
2022/12/09 05:20:49;;;;;;;268.17;68.18;;;;;;;0.80;100.00;100307.72;4961733;28;20051;-80
2022/12/09 05:23:14;;;;;;;263.33;68.25;;;;;;;0.71;100.00;100317.13;4989935;28;20046;-80
2022/12/09 05:25:39;;;;;;;267.35;70.20;;;;;;;0.77;100.00;100313.28;4993554;28;20046;-79
2022/12/09 05:28:05;;;;;;;270.08;68.53;;;;;;;0.76;100.00;100319.59;4979754;28;20088;-79
2022/12/09 05:30:30;;;;;;;276.85;71.78;;;;;;;0.73;100.00;100317.91;4992637;28;20117;-80
2022/12/09 05:32:56;;;;;;;278.63;71.70;;;;;;;0.74;100.00;100308.03;4994428;28;20514;-81
2022/12/09 05:35:21;;;;;;;251.60;67.22;;;;;;;0.71;100.00;100321.66;4953708;28;20041;-79
2022/12/09 05:37:46;;;;;;;244.75;67.43;;;;;;;0.67;100.00;100320.03;4992170;28;20469;-79
2022/12/09 05:40:12;;;;;;;265.23;64.85;;;;;;;0.67;100.00;100317.34;4991617;28;20046;-79
2022/12/09 05:42:38;;;;;;;270.92;68.18;;;;;;;0.63;100.00;100319.28;4988591;28;20045;-78
2022/12/09 05:45:04;;;;;;;276.65;67.80;;;;;;;0.78;100.00;100320.41;4984605;28;20042;-78
2022/12/09 05:47:29;;;;;;;269.00;68.85;;;;;;;0.81;100.00;100320.25;4977852;28;20044;-80
2022/12/09 05:49:55;;;;;;;275.30;69.05;;;;;;;0.70;100.00;100315.34;4999530;28;20125;-78
2022/12/09 05:52:20;;;;;;;291.25;66.93;;;;;;;0.69;100.00;100304.69;4977459;28;20043;-80
2022/12/09 05:54:46;;;;;;;267.60;66.28;;;;;;;0.71;100.00;100316.25;5006837;28;20034;-79
2022/12/09 05:57:11;;;;;;;281.48;67.55;;;;;;;0.68;100.00;100308.31;4994503;28;20342;-79
2022/12/09 05:59:37;;;;;;;269.60;65.22;;;;;;;0.62;100.00;100300.50;4992378;28;20393;-80
2022/12/09 06:02:03;;;;;;;269.75;63.00;;;;;;;0.68;100.00;100313.69;4979219;28;20049;-80
2022/12/09 06:04:28;;;;;;;245.60;62.08;;;;;;;0.66;100.00;100294.91;4991528;28;20035;-80
2022/12/09 06:06:54;;;;;;;255.88;63.75;;;;;;;0.69;100.00;100304.69;4997738;28;20046;-79
2022/12/09 06:09:19;;;;;;;259.25;64.05;;;;;;;0.77;100.00;100305.19;4996213;28;20038;-78
2022/12/09 06:11:45;;;;;;;257.83;61.65;;;;;;;0.81;100.00;100296.00;4973428;28;20101;-79
2022/12/09 06:14:10;;;;;;;286.08;68.68;;;;;;;0.76;100.00;100292.66;4992093;28;20065;-79
2022/12/09 06:16:36;;;;;;;275.33;65.47;;;;;;;0.76;100.00;100292.66;4995687;28;20062;-80
2022/12/09 06:19:03;;;;;;;266.17;61.42;;;;;;;0.85;100.00;100294.91;4962370;28;20030;-79
2022/12/09 06:21:30;;;;;;;252.40;62.15;;;;;;;0.73;100.00;100285.59;4978066;28;20050;-80
2022/12/09 06:23:55;;;;;;;291.05;64.78;;;;;;;0.86;100.00;100299.34;4997531;28;20042;-80
2022/12/09 06:26:27;;;;;;;270.52;63.85;;;;;;;0.87;100.00;100297.50;4966546;28;20041;-80
2022/12/09 06:28:55;;;;;;;266.45;64.50;;;;;;;0.77;100.00;100297.13;4987244;28;20390;-80
2022/12/09 06:31:21;;;;;;;257.67;62.45;;;;;;;0.93;100.00;100296.38;4991584;28;20048;-80
2022/12/09 06:33:47;;;;;;;279.38;64.97;;;;;;;0.90;100.00;100308.16;4994428;28;20047;-79
2022/12/09 06:36:13;;;;;;;259.63;61.15;;;;;;;0.84;100.00;100295.00;4981449;28;20077;-80
2022/12/09 06:38:39;;;;;;;240.88;62.38;;;;;;;0.89;100.00;100304.59;4991360;28;20038;-79
2022/12/09 06:41:10;;;;;;;235.38;61.80;;;;;;;0.95;100.00;100299.84;4972221;28;20037;-80
2022/12/09 06:43:36;;;;;;;256.70;60.58;;;;;;;0.95;100.00;100300.72;4997260;28;20129;-79
2022/12/09 06:46:03;;;;;;;259.13;63.40;;;;;;;0.87;100.00;100295.72;4990364;28;20431;-78
2022/12/09 06:48:28;;;;;;;248.15;61.50;;;;;;;0.83;100.00;100290.53;4982981;28;20524;-79
2022/12/09 06:50:54;;;;;;;233.55;57.25;;;;;;;0.85;100.00;100305.69;4998186;28;20030;-79
2022/12/09 06:53:20;;;;;;;241.77;61.90;;;;;;;0.93;100.00;100304.44;4971236;28;21045;-79
2022/12/09 06:55:45;;;;;;;248.48;59.63;;;;;;;0.95;100.00;100303.41;4992672;28;20125;-80
2022/12/09 06:58:11;;;;;;;268.77;65.57;;;;;;;0.99;100.00;100307.72;4977654;28;20069;-79
2022/12/09 07:00:36;;;;;;;234.75;60.03;;;;;;;0.89;100.00;100298.34;4989546;28;20057;-79
2022/12/09 07:03:02;;;;;;;255.05;61.15;;;;;;;0.97;100.00;100316.81;4979104;28;20046;-79
2022/12/09 07:05:28;;;;;;;288.88;65.65;;;;;;;1.01;100.00;100316.59;4979146;28;20031;-80
2022/12/09 07:07:53;;;;;;;277.92;65.88;;;;;;;0.98;100.00;100313.19;4999014;28;20039;-80
2022/12/09 07:10:19;;;;;;;284.60;65.10;;;;;;;0.97;100.00;100315.00;4981696;28;20069;-80
2022/12/09 07:12:45;;;;;;;278.05;64.68;;;;;;;0.99;100.00;100317.63;4999147;28;20043;-79
2022/12/09 07:15:11;;;;;;;297.63;67.18;;;;;;;1.03;100.00;100317.41;4975423;28;20042;-81
2022/12/09 07:17:37;;;;;;;276.80;65.38;;;;;;;1.02;100.00;100309.41;4997593;28;20405;-79
2022/12/09 07:20:03;;;;;;;249.82;65.35;;;;;;;1.15;100.00;100325.84;4991259;28;20117;-79
2022/12/09 07:22:28;;;;;;;268.65;61.63;;;;;;;1.11;100.00;100319.72;4996434;28;20262;-79
2022/12/09 07:24:54;;;;;;;277.60;66.13;;;;;;;1.02;100.00;100312.09;4995914;28;20042;-78
2022/12/09 07:27:19;;;;;;;263.92;63.05;;;;;;;1.02;100.00;100329.13;4981804;28;20046;-80
2022/12/09 07:29:44;;;;;;;269.27;62.35;;;;;;;0.97;100.00;100317.72;4978531;28;20046;-80
2022/12/09 07:32:10;;;;;;;302.35;65.97;;;;;;;1.00;100.00;100322.94;5003344;28;20042;-80
2022/12/09 07:34:37;;;;;;;297.85;64.00;;;;;;;0.89;100.00;100303.72;4994784;28;20069;-80
2022/12/09 07:37:02;;;;;;;271.60;68.75;;;;;;;1.06;100.00;100321.78;4995518;28;20042;-80
2022/12/09 07:39:28;;;;;;;271.73;62.03;;;;;;;0.86;100.00;100317.34;5007286;28;20097;-81
2022/12/09 07:41:56;;;;;;;287.88;65.70;;;;;;;0.91;100.00;100313.47;4981485;28;20034;-83
2022/12/09 07:44:24;;;;;;;274.67;63.92;;;;;;;0.98;100.00;100327.53;4977998;28;20070;-80
2022/12/09 07:46:50;;;;;;;273.58;61.22;;;;;;;1.08;100.00;100322.56;4977241;28;20061;-79
2022/12/09 07:49:15;;;;;;;302.27;69.97;;;;;;;1.04;100.00;100329.06;4995904;28;20477;-81
2022/12/09 07:51:42;;;;;;;290.45;68.30;;;;;;;0.94;100.00;100328.63;4999399;28;20034;-80
2022/12/09 07:54:12;;;;;;;298.10;66.90;;;;;;;0.96;100.00;100325.88;4997837;28;20030;-80
2022/12/09 07:56:38;;;;;;;297.30;70.13;;;;;;;0.89;100.00;100325.28;4997106;28;20026;-80
2022/12/09 07:59:09;;;;;;;312.67;70.95;;;;;;;0.94;100.00;100335.84;4998356;28;20061;-79
2022/12/09 08:01:35;;;;;;;285.48;69.47;;;;;;;1.04;100.00;100329.94;4997792;28;20034;-81
2022/12/09 08:04:03;;;;;;;287.58;70.25;;;;;;;1.12;100.00;100332.25;4982614;28;20413;-79
2022/12/09 08:06:30;;;;;;;254.82;64.10;;;;;;;1.17;100.00;100338.31;4981552;28;20038;-81
2022/12/09 08:09:00;;;;;;;272.77;67.22;;;;;;;0.88;100.00;100337.00;4981011;28;20061;-80
2022/12/09 08:11:27;;;;;;;252.73;62.70;;;;;;;0.90;100.00;100337.78;4994926;28;20026;-82
2022/12/09 08:13:55;;;;;;;263.85;68.07;;;;;;;0.91;100.00;100332.34;4999377;28;20035;-82
2022/12/09 08:16:21;;;;;;;270.02;63.72;;;;;;;0.86;100.00;100330.81;4977674;28;20051;-81
2022/12/09 08:18:49;;;;;;;303.77;70.00;;;;;;;0.95;100.00;100341.13;4995847;28;20053;-82
2022/12/09 08:21:18;;;;;;;313.90;70.93;;;;;;;0.83;100.00;100322.88;4985084;28;20042;-82
2022/12/09 08:23:44;;;;;;;270.85;64.88;;;;;;;0.86;100.00;100337.06;4986935;28;20057;-83
2022/12/09 08:26:11;;;;;;;351.70;88.10;;;;;;;0.71;100.00;100324.34;4997595;28;20030;-81
2022/12/09 08:28:37;;;;;;;331.95;76.78;;;;;;;0.73;100.00;100333.22;4989119;28;20035;-83
2022/12/09 08:31:10;;;;;;;372.27;77.68;;;;;;;0.70;100.00;100330.66;4966037;28;20031;-81
2022/12/09 08:33:36;;;;;;;357.98;73.40;;;;;;;0.74;100.00;100334.97;4967697;28;20035;-83
2022/12/09 08:36:03;;;;;;;327.75;69.10;;;;;;;0.81;100.00;100335.56;4998718;28;20038;-81
2022/12/09 08:38:30;;;;;;;329.60;69.22;;;;;;;0.76;100.00;100335.75;5002943;28;20030;-81
2022/12/09 08:40:57;;;;;;;336.95;69.07;;;;;;;0.84;100.00;100341.66;5001192;28;20034;-82
2022/12/09 08:43:22;;;;;;;339.63;66.75;;;;;;;0.91;100.00;100335.03;5000935;28;20026;-82
2022/12/09 08:45:52;;;;;;;343.15;67.95;;;;;;;1.00;100.00;100340.94;5001225;28;20031;-81
2022/12/09 08:48:17;;;;;;;330.30;62.28;;;;;;;1.01;100.00;100340.84;4985138;28;20046;-81
2022/12/09 08:50:43;;;;;;;313.63;64.43;;;;;;;0.90;100.00;100348.56;4967910;28;20125;-81
2022/12/09 08:53:08;;;;;;;311.15;61.25;;;;;;;0.85;100.00;100338.03;5000855;28;20042;-81
2022/12/09 08:55:38;;;;;;;294.38;60.22;;;;;;;0.66;100.00;100310.22;4983780;28;20049;-82
2022/12/09 08:58:03;;;;;;;291.05;59.67;;;;;;;0.85;100.00;100340.72;4997862;28;20046;-82
2022/12/09 09:00:28;;;;;;;325.45;62.13;;;;;;;0.75;100.00;100323.22;4981025;28;20030;-80
2022/12/09 09:02:54;;;;;;;315.05;58.85;;;;;;;0.75;100.00;100311.59;4998045;28;20031;-82
2022/12/09 09:05:19;;;;;;;302.70;61.00;;;;;;;0.91;100.00;100340.41;4999317;28;20497;-82
2022/12/09 09:07:45;;;;;;;314.48;61.33;;;;;;;1.00;100.00;100333.75;4997376;28;20176;-82
2022/12/09 09:10:10;;;;;;;300.90;58.20;;;;;;;1.02;100.00;100345.31;4982283;28;20236;-82
2022/12/09 09:12:36;;;;;;;295.20;60.15;;;;;;;1.09;100.00;100337.81;4988005;28;20041;-81
2022/12/09 09:15:02;;;;;;;290.92;65.13;;;;;;;1.08;100.00;100347.72;4963927;28;20105;-82
2022/12/09 09:17:27;;;;;;;309.13;58.17;;;;;;;1.15;100.00;100348.28;4973247;28;20058;-81
2022/12/09 09:19:53;;;;;;;278.42;57.90;;;;;;;1.20;100.00;100351.63;4995813;28;20080;-81
2022/12/09 09:22:18;;;;;;;296.58;58.55;;;;;;;1.23;100.00;100356.00;4992742;28;20039;-81
2022/12/09 09:24:44;;;;;;;286.73;57.30;;;;;;;1.23;100.00;100345.19;4999830;28;20066;-82
2022/12/09 09:27:10;;;;;;;273.60;57.90;;;;;;;1.24;100.00;100336.19;4988715;28;20031;-82
2022/12/09 09:29:35;;;;;;;271.98;54.95;;;;;;;1.32;100.00;100352.84;4981926;28;20062;-80
2022/12/09 09:32:01;;;;;;;272.45;56.38;;;;;;;1.33;100.00;100345.63;4966192;28;20033;-81
2022/12/09 09:34:26;;;;;;;266.52;56.47;;;;;;;1.42;100.00;100355.97;4964762;28;20034;-80
2022/12/09 09:36:53;;;;;;;252.25;52.38;;;;;;;1.33;100.00;100346.53;5006808;28;20058;-81
2022/12/09 09:39:20;;;;;;;247.95;51.28;;;;;;;1.34;100.00;100359.03;4982025;28;20046;-81
2022/12/09 09:42:05;;;;;;;239.43;51.55;;;;;;;1.38;100.00;100343.59;4971408;28;20027;-82
2022/12/09 09:44:38;;;;;;;217.15;46.92;;;;;;;1.40;100.00;100352.50;4984646;28;20094;-82
2022/12/09 09:47:18;;;;;;;;;;;;;;;1.53;100.00;100350.06;5000813;28;20044;-82
2022/12/09 09:50:01;;;;;;;207.25;44.90;;;;;;;1.61;100.00;100347.84;4983366;28;19914;-79
2022/12/09 09:52:28;;;;;;;;;;;;;;;1.63;100.00;100360.31;4995187;28;20412;-82
2022/12/09 09:54:53;;;;;;;236.13;51.10;;;;;;;1.53;100.00;100350.06;4971216;28;19914;-83
2022/12/09 09:57:21;;;;;;;240.88;52.20;;;;;;;1.50;100.00;100355.59;4952169;28;20065;-82
2022/12/09 10:00:01;;;;;;;225.63;51.03;;;;;;;1.55;100.00;100353.56;4985796;28;20085;-82
2022/12/09 10:02:57;;;;;;;239.10;52.53;;;;;;;1.61;100.00;100350.56;5000625;28;20038;-82
2022/12/09 10:05:50;;;;;;;241.35;55.55;;;;;;;1.53;100.00;100348.22;5002838;28;20044;-82
2022/12/09 10:08:38;;;;;;;218.80;48.42;;;;;;;1.65;100.00;100355.69;4979034;28;20027;-82
2022/12/09 10:11:37;;;;;;;234.20;49.83;;;;;;;1.54;100.00;100344.59;5006861;28;20043;-83
2022/12/09 10:14:09;;;;;;;240.80;48.08;;;;;;;1.66;100.00;100348.50;5007549;28;20031;-82
2022/12/09 10:16:40;;;;;;;227.52;52.47;;;;;;;1.61;100.00;100348.72;4985738;28;20042;-83
2022/12/09 10:19:31;;;;;;;230.10;52.60;;;;;;;1.62;100.00;100347.78;4983202;28;20034;-83
2022/12/09 10:21:59;;;;;;;228.52;52.67;;;;;;;1.76;100.00;100354.31;4992433;28;20039;-83
2022/12/09 10:24:25;;;;;;;231.30;52.70;;;;;;;1.79;100.00;100356.84;4968562;28;20097;-82
2022/12/09 10:27:03;;;;;;;228.05;49.33;;;;;;;1.71;100.00;100353.66;4999630;28;20054;-84
2022/12/09 10:29:38;;;;;;;228.15;47.65;;;;;;;1.67;100.00;100346.66;4987441;28;20433;-84
2022/12/09 10:32:03;;;;;;;212.52;49.03;;;;;;;1.73;100.00;100349.91;5003622;28;20030;-83
2022/12/09 10:34:29;;;;;;;202.45;47.03;;;;;;;1.51;100.00;100325.84;4967918;28;20045;-82
2022/12/09 10:36:54;;;;;;;207.00;46.92;;;;;;;1.74;100.00;100357.06;4965794;28;20038;-82
2022/12/09 10:39:20;;;;;;;213.55;47.42;;;;;;;1.76;100.00;100357.84;5000511;28;20148;-83
2022/12/09 10:44:36;;;;;;;204.88;47.20;;;;;;;1.83;100.00;100344.94;4999035;28;20034;-84
2022/12/09 10:47:26;;;;;;;175.73;41.92;;;;;;;1.95;100.00;100348.81;4992043;28;20073;-83
2022/12/09 10:49:53;;;;;;;175.75;39.90;;;;;;;1.95;100.00;100338.91;4986886;28;20030;-83
2022/12/09 10:52:26;;;;;;;178.30;41.85;;;;;;;1.84;100.00;100327.78;4987054;28;20018;-83
2022/12/09 10:54:52;;;;;;;177.55;39.65;;;;;;;1.91;100.00;100345.41;4972245;28;20107;-83
2022/12/09 10:57:17;;;;;;;168.85;40.05;;;;;;;1.84;100.00;100349.38;4962893;28;20070;-83
2022/12/09 10:59:55;;;;;;;186.18;41.97;;;;;;;1.95;100.00;100338.00;4981806;28;20122;-82
2022/12/09 11:02:22;;;;;;;175.32;38.92;;;;;;;1.99;100.00;100331.53;4983235;28;20034;-82
2022/12/09 11:04:50;;;;;;;195.30;43.75;;;;;;;1.90;100.00;100329.28;4964431;28;20035;-82
2022/12/09 11:07:18;;;;;;;184.48;41.92;;;;;;;2.03;100.00;100330.38;4969089;28;20049;-83
2022/12/09 11:09:47;;;;;;;185.68;42.85;;;;;;;2.05;100.00;100327.59;5002022;28;20165;-83
2022/12/09 11:12:27;;;;;;;171.82;42.00;;;;;;;2.13;100.00;100328.97;5010061;28;20038;-83
2022/12/09 11:14:57;;;;;;;181.10;40.92;;;;;;;2.21;100.00;100336.66;4998874;28;20113;-82